sensor_id;sensor_type;location;lat;lon;timestamp;P1;durP1;ratioP1;P2;durP2;ratioP2
5752;SDS011;2901;42.140;24.760;2023-07-13T00:00:34;11.65;;;10.75;;
5752;SDS011;2901;42.140;24.760;2023-07-13T00:03:01;11.40;;;10.38;;
5752;SDS011;2901;42.140;24.760;2023-07-13T00:05:27;11.38;;;10.32;;
5752;SDS011;2901;42.140;24.760;2023-07-13T00:07:52;12.05;;;10.90;;
5752;SDS011;2901;42.140;24.760;2023-07-13T00:10:19;13.48;;;10.90;;
5752;SDS011;2901;42.140;24.760;2023-07-13T00:12:45;13.85;;;11.07;;
5752;SDS011;2901;42.140;24.760;2023-07-13T00:15:12;13.90;;;11.45;;
5752;SDS011;2901;42.140;24.760;2023-07-13T00:17:49;11.05;;;9.80;;
5752;SDS011;2901;42.140;24.760;2023-07-13T00:20:15;13.20;;;10.73;;
5752;SDS011;2901;42.140;24.760;2023-07-13T00:22:42;15.60;;;12.32;;
5752;SDS011;2901;42.140;24.760;2023-07-13T00:25:09;11.95;;;10.95;;
5752;SDS011;2901;42.140;24.760;2023-07-13T00:27:36;12.05;;;10.93;;
5752;SDS011;2901;42.140;24.760;2023-07-13T00:30:01;11.18;;;10.38;;
5752;SDS011;2901;42.140;24.760;2023-07-13T00:32:28;12.32;;;11.23;;
5752;SDS011;2901;42.140;24.760;2023-07-13T00:34:54;12.80;;;11.65;;
5752;SDS011;2901;42.140;24.760;2023-07-13T00:37:20;12.40;;;11.30;;
5752;SDS011;2901;42.140;24.760;2023-07-13T00:39:45;11.65;;;10.60;;
5752;SDS011;2901;42.140;24.760;2023-07-13T00:42:11;12.45;;;10.30;;
5752;SDS011;2901;42.140;24.760;2023-07-13T00:44:36;10.63;;;9.88;;
5752;SDS011;2901;42.140;24.760;2023-07-13T00:47:02;10.93;;;9.85;;
5752;SDS011;2901;42.140;24.760;2023-07-13T00:49:28;12.27;;;8.80;;
5752;SDS011;2901;42.140;24.760;2023-07-13T00:52:05;10.43;;;9.40;;
5752;SDS011;2901;42.140;24.760;2023-07-13T00:54:34;10.73;;;9.40;;
5752;SDS011;2901;42.140;24.760;2023-07-13T00:57:05;9.48;;;8.98;;
5752;SDS011;2901;42.140;24.760;2023-07-13T00:59:33;10.18;;;9.23;;
5752;SDS011;2901;42.140;24.760;2023-07-13T01:02:01;11.43;;;8.70;;
5752;SDS011;2901;42.140;24.760;2023-07-13T01:04:28;9.68;;;8.77;;
5752;SDS011;2901;42.140;24.760;2023-07-13T01:06:53;9.60;;;9.10;;
5752;SDS011;2901;42.140;24.760;2023-07-13T01:09:19;8.90;;;8.20;;
5752;SDS011;2901;42.140;24.760;2023-07-13T01:11:45;8.50;;;7.93;;
5752;SDS011;2901;42.140;24.760;2023-07-13T01:14:11;9.27;;;8.57;;
5752;SDS011;2901;42.140;24.760;2023-07-13T01:16:37;9.65;;;8.85;;
5752;SDS011;2901;42.140;24.760;2023-07-13T01:19:07;7.80;;;7.38;;
5752;SDS011;2901;42.140;24.760;2023-07-13T01:21:54;8.90;;;8.20;;
5752;SDS011;2901;42.140;24.760;2023-07-13T01:24:20;8.20;;;7.68;;
5752;SDS011;2901;42.140;24.760;2023-07-13T01:26:45;10.25;;;7.60;;
5752;SDS011;2901;42.140;24.760;2023-07-13T01:29:11;7.75;;;7.25;;
5752;SDS011;2901;42.140;24.760;2023-07-13T01:31:36;8.43;;;7.85;;
5752;SDS011;2901;42.140;24.760;2023-07-13T01:34:01;8.65;;;7.80;;
5752;SDS011;2901;42.140;24.760;2023-07-13T01:36:27;8.05;;;7.45;;
5752;SDS011;2901;42.140;24.760;2023-07-13T01:38:52;7.93;;;7.25;;
5752;SDS011;2901;42.140;24.760;2023-07-13T01:41:18;7.40;;;6.70;;
5752;SDS011;2901;42.140;24.760;2023-07-13T01:43:43;7.72;;;7.22;;
5752;SDS011;2901;42.140;24.760;2023-07-13T01:46:08;8.60;;;7.93;;
5752;SDS011;2901;42.140;24.760;2023-07-13T01:48:34;9.55;;;7.45;;
5752;SDS011;2901;42.140;24.760;2023-07-13T01:50:59;8.18;;;7.47;;
5752;SDS011;2901;42.140;24.760;2023-07-13T01:53:25;8.70;;;8.07;;
5752;SDS011;2901;42.140;24.760;2023-07-13T01:55:50;8.63;;;7.93;;
5752;SDS011;2901;42.140;24.760;2023-07-13T01:58:15;8.20;;;7.70;;
5752;SDS011;2901;42.140;24.760;2023-07-13T02:00:41;8.07;;;7.35;;
5752;SDS011;2901;42.140;24.760;2023-07-13T02:03:06;8.02;;;7.53;;
5752;SDS011;2901;42.140;24.760;2023-07-13T02:05:31;8.25;;;7.55;;
5752;SDS011;2901;42.140;24.760;2023-07-13T02:07:57;7.75;;;7.18;;
5752;SDS011;2901;42.140;24.760;2023-07-13T02:10:22;8.55;;;7.85;;
5752;SDS011;2901;42.140;24.760;2023-07-13T02:12:48;7.88;;;7.30;;
5752;SDS011;2901;42.140;24.760;2023-07-13T02:15:15;8.82;;;8.02;;
5752;SDS011;2901;42.140;24.760;2023-07-13T02:17:40;8.32;;;7.78;;
5752;SDS011;2901;42.140;24.760;2023-07-13T02:20:06;8.63;;;8.05;;
5752;SDS011;2901;42.140;24.760;2023-07-13T02:22:33;7.45;;;7.15;;
5752;SDS011;2901;42.140;24.760;2023-07-13T02:24:58;8.48;;;7.88;;
5752;SDS011;2901;42.140;24.760;2023-07-13T02:27:24;8.30;;;7.60;;
5752;SDS011;2901;42.140;24.760;2023-07-13T02:29:49;7.50;;;6.75;;
5752;SDS011;2901;42.140;24.760;2023-07-13T02:32:16;9.32;;;7.43;;
5752;SDS011;2901;42.140;24.760;2023-07-13T02:34:42;8.05;;;7.32;;
5752;SDS011;2901;42.140;24.760;2023-07-13T02:37:08;8.50;;;7.78;;
5752;SDS011;2901;42.140;24.760;2023-07-13T02:39:33;8.73;;;8.10;;
5752;SDS011;2901;42.140;24.760;2023-07-13T02:41:59;8.27;;;7.78;;
5752;SDS011;2901;42.140;24.760;2023-07-13T02:44:25;8.43;;;7.75;;
5752;SDS011;2901;42.140;24.760;2023-07-13T02:46:51;8.45;;;7.72;;
5752;SDS011;2901;42.140;24.760;2023-07-13T02:49:16;9.00;;;7.57;;
5752;SDS011;2901;42.140;24.760;2023-07-13T02:51:42;8.07;;;7.50;;
5752;SDS011;2901;42.140;24.760;2023-07-13T02:54:07;9.35;;;7.55;;
5752;SDS011;2901;42.140;24.760;2023-07-13T02:56:34;12.90;;;7.60;;
5752;SDS011;2901;42.140;24.760;2023-07-13T02:58:59;9.30;;;8.48;;
5752;SDS011;2901;42.140;24.760;2023-07-13T03:01:25;11.35;;;8.38;;
5752;SDS011;2901;42.140;24.760;2023-07-13T03:03:51;8.32;;;7.63;;
5752;SDS011;2901;42.140;24.760;2023-07-13T03:06:16;8.88;;;8.13;;
5752;SDS011;2901;42.140;24.760;2023-07-13T03:08:42;7.85;;;7.25;;
5752;SDS011;2901;42.140;24.760;2023-07-13T03:11:10;8.38;;;7.72;;
5752;SDS011;2901;42.140;24.760;2023-07-13T03:13:38;10.07;;;8.13;;
5752;SDS011;2901;42.140;24.760;2023-07-13T03:16:04;8.20;;;7.43;;
5752;SDS011;2901;42.140;24.760;2023-07-13T03:18:31;8.57;;;7.13;;
5752;SDS011;2901;42.140;24.760;2023-07-13T03:20:56;8.23;;;7.60;;
5752;SDS011;2901;42.140;24.760;2023-07-13T03:23:22;9.73;;;8.57;;
5752;SDS011;2901;42.140;24.760;2023-07-13T03:25:48;9.65;;;7.90;;
5752;SDS011;2901;42.140;24.760;2023-07-13T03:28:13;7.82;;;7.22;;
5752;SDS011;2901;42.140;24.760;2023-07-13T03:30:40;7.75;;;7.05;;
5752;SDS011;2901;42.140;24.760;2023-07-13T03:33:06;8.88;;;7.78;;
5752;SDS011;2901;42.140;24.760;2023-07-13T03:35:32;8.70;;;7.82;;
5752;SDS011;2901;42.140;24.760;2023-07-13T03:37:58;8.75;;;7.40;;
5752;SDS011;2901;42.140;24.760;2023-07-13T03:40:24;8.50;;;7.63;;
5752;SDS011;2901;42.140;24.760;2023-07-13T03:42:51;10.23;;;7.07;;
5752;SDS011;2901;42.140;24.760;2023-07-13T03:45:17;7.57;;;6.97;;
5752;SDS011;2901;42.140;24.760;2023-07-13T03:47:43;10.25;;;7.20;;
5752;SDS011;2901;42.140;24.760;2023-07-13T03:50:08;8.73;;;7.93;;
5752;SDS011;2901;42.140;24.760;2023-07-13T03:52:34;7.78;;;7.07;;
5752;SDS011;2901;42.140;24.760;2023-07-13T03:54:59;10.40;;;7.70;;
5752;SDS011;2901;42.140;24.760;2023-07-13T03:57:25;11.98;;;7.55;;
5752;SDS011;2901;42.140;24.760;2023-07-13T03:59:50;11.48;;;7.78;;
5752;SDS011;2901;42.140;24.760;2023-07-13T04:02:16;12.23;;;7.65;;
5752;SDS011;2901;42.140;24.760;2023-07-13T04:04:42;11.32;;;7.32;;
5752;SDS011;2901;42.140;24.760;2023-07-13T04:07:07;14.43;;;7.75;;
5752;SDS011;2901;42.140;24.760;2023-07-13T04:09:33;8.27;;;7.53;;
5752;SDS011;2901;42.140;24.760;2023-07-13T04:11:59;10.45;;;8.00;;
5752;SDS011;2901;42.140;24.760;2023-07-13T04:14:24;10.52;;;7.93;;
5752;SDS011;2901;42.140;24.760;2023-07-13T04:16:49;10.48;;;7.35;;
5752;SDS011;2901;42.140;24.760;2023-07-13T04:19:15;8.23;;;7.68;;
5752;SDS011;2901;42.140;24.760;2023-07-13T04:21:40;7.70;;;7.18;;
5752;SDS011;2901;42.140;24.760;2023-07-13T04:24:06;8.13;;;7.53;;
5752;SDS011;2901;42.140;24.760;2023-07-13T04:26:32;25.40;;;9.43;;
5752;SDS011;2901;42.140;24.760;2023-07-13T04:29:01;8.55;;;7.95;;
5752;SDS011;2901;42.140;24.760;2023-07-13T04:31:28;9.90;;;7.35;;
5752;SDS011;2901;42.140;24.760;2023-07-13T04:33:53;10.25;;;8.25;;
5752;SDS011;2901;42.140;24.760;2023-07-13T04:36:18;8.73;;;8.25;;
5752;SDS011;2901;42.140;24.760;2023-07-13T04:38:44;8.38;;;7.72;;
5752;SDS011;2901;42.140;24.760;2023-07-13T04:41:09;10.02;;;8.85;;
5752;SDS011;2901;42.140;24.760;2023-07-13T04:43:35;9.57;;;8.65;;
5752;SDS011;2901;42.140;24.760;2023-07-13T04:46:04;8.68;;;8.15;;
5752;SDS011;2901;42.140;24.760;2023-07-13T04:48:36;10.98;;;8.65;;
5752;SDS011;2901;42.140;24.760;2023-07-13T04:51:02;9.77;;;8.82;;
5752;SDS011;2901;42.140;24.760;2023-07-13T04:53:28;17.13;;;9.05;;
5752;SDS011;2901;42.140;24.760;2023-07-13T04:55:55;9.82;;;9.00;;
5752;SDS011;2901;42.140;24.760;2023-07-13T04:58:21;12.73;;;8.85;;
5752;SDS011;2901;42.140;24.760;2023-07-13T05:00:47;20.13;;;9.60;;
5752;SDS011;2901;42.140;24.760;2023-07-13T05:03:13;10.10;;;9.27;;
5752;SDS011;2901;42.140;24.760;2023-07-13T05:05:38;9.82;;;8.95;;
5752;SDS011;2901;42.140;24.760;2023-07-13T05:08:04;12.35;;;8.90;;
5752;SDS011;2901;42.140;24.760;2023-07-13T05:10:29;10.13;;;8.23;;
5752;SDS011;2901;42.140;24.760;2023-07-13T05:12:55;10.18;;;9.40;;
5752;SDS011;2901;42.140;24.760;2023-07-13T05:15:23;12.88;;;8.95;;
5752;SDS011;2901;42.140;24.760;2023-07-13T05:17:50;12.13;;;9.63;;
5752;SDS011;2901;42.140;24.760;2023-07-13T05:20:16;9.85;;;9.18;;
5752;SDS011;2901;42.140;24.760;2023-07-13T05:22:43;10.45;;;9.55;;
5752;SDS011;2901;42.140;24.760;2023-07-13T05:25:09;11.05;;;10.15;;
5752;SDS011;2901;42.140;24.760;2023-07-13T05:27:35;10.80;;;9.85;;
5752;SDS011;2901;42.140;24.760;2023-07-13T05:30:01;10.25;;;9.15;;
5752;SDS011;2901;42.140;24.760;2023-07-13T05:32:27;13.38;;;10.18;;
5752;SDS011;2901;42.140;24.760;2023-07-13T05:34:53;13.18;;;9.85;;
5752;SDS011;2901;42.140;24.760;2023-07-13T05:37:18;9.30;;;8.65;;
5752;SDS011;2901;42.140;24.760;2023-07-13T05:39:43;17.70;;;10.13;;
5752;SDS011;2901;42.140;24.760;2023-07-13T05:42:09;10.80;;;9.73;;
5752;SDS011;2901;42.140;24.760;2023-07-13T05:44:35;10.27;;;9.48;;
5752;SDS011;2901;42.140;24.760;2023-07-13T05:47:00;12.18;;;9.98;;
5752;SDS011;2901;42.140;24.760;2023-07-13T05:49:26;10.63;;;9.70;;
5752;SDS011;2901;42.140;24.760;2023-07-13T05:51:52;11.43;;;9.85;;
5752;SDS011;2901;42.140;24.760;2023-07-13T05:54:18;11.32;;;10.23;;
5752;SDS011;2901;42.140;24.760;2023-07-13T05:56:43;10.20;;;9.35;;
5752;SDS011;2901;42.140;24.760;2023-07-13T05:59:09;10.90;;;9.65;;
5752;SDS011;2901;42.140;24.760;2023-07-13T06:01:34;11.18;;;10.15;;
5752;SDS011;2901;42.140;24.760;2023-07-13T06:03:59;11.18;;;9.38;;
5752;SDS011;2901;42.140;24.760;2023-07-13T06:06:25;14.98;;;9.57;;
5752;SDS011;2901;42.140;24.760;2023-07-13T06:08:50;10.25;;;9.48;;
5752;SDS011;2901;42.140;24.760;2023-07-13T06:11:16;10.27;;;9.60;;
5752;SDS011;2901;42.140;24.760;2023-07-13T06:13:44;12.27;;;10.48;;
5752;SDS011;2901;42.140;24.760;2023-07-13T06:16:10;15.48;;;9.77;;
5752;SDS011;2901;42.140;24.760;2023-07-13T06:18:37;13.50;;;10.30;;
5752;SDS011;2901;42.140;24.760;2023-07-13T06:21:06;14.32;;;9.55;;
5752;SDS011;2901;42.140;24.760;2023-07-13T06:23:33;10.05;;;9.35;;
5752;SDS011;2901;42.140;24.760;2023-07-13T06:25:58;11.13;;;8.65;;
5752;SDS011;2901;42.140;24.760;2023-07-13T06:28:24;9.90;;;8.95;;
5752;SDS011;2901;42.140;24.760;2023-07-13T06:30:49;10.27;;;9.48;;
5752;SDS011;2901;42.140;24.760;2023-07-13T06:33:14;10.18;;;9.48;;
5752;SDS011;2901;42.140;24.760;2023-07-13T06:35:40;12.32;;;11.05;;
5752;SDS011;2901;42.140;24.760;2023-07-13T06:38:05;21.55;;;9.73;;
5752;SDS011;2901;42.140;24.760;2023-07-13T06:40:31;14.40;;;9.45;;
5752;SDS011;2901;42.140;24.760;2023-07-13T06:42:56;10.00;;;8.90;;
5752;SDS011;2901;42.140;24.760;2023-07-13T06:45:22;11.48;;;9.73;;
5752;SDS011;2901;42.140;24.760;2023-07-13T06:47:48;10.52;;;9.30;;
5752;SDS011;2901;42.140;24.760;2023-07-13T06:50:14;9.60;;;9.05;;
5752;SDS011;2901;42.140;24.760;2023-07-13T06:52:40;21.55;;;9.70;;
5752;SDS011;2901;42.140;24.760;2023-07-13T06:55:05;11.07;;;10.25;;
5752;SDS011;2901;42.140;24.760;2023-07-13T06:57:31;10.20;;;9.38;;
5752;SDS011;2901;42.140;24.760;2023-07-13T06:59:56;10.23;;;8.85;;
5752;SDS011;2901;42.140;24.760;2023-07-13T07:02:22;9.93;;;9.05;;
5752;SDS011;2901;42.140;24.760;2023-07-13T07:04:47;8.50;;;8.00;;
5752;SDS011;2901;42.140;24.760;2023-07-13T07:07:13;9.48;;;8.75;;
5752;SDS011;2901;42.140;24.760;2023-07-13T07:09:38;10.35;;;9.23;;
5752;SDS011;2901;42.140;24.760;2023-07-13T07:12:04;9.90;;;9.20;;
5752;SDS011;2901;42.140;24.760;2023-07-13T07:14:30;11.30;;;9.77;;
5752;SDS011;2901;42.140;24.760;2023-07-13T07:16:56;11.32;;;9.45;;
5752;SDS011;2901;42.140;24.760;2023-07-13T07:19:21;10.02;;;9.18;;
5752;SDS011;2901;42.140;24.760;2023-07-13T07:21:46;11.40;;;9.73;;
5752;SDS011;2901;42.140;24.760;2023-07-13T07:24:12;10.13;;;9.23;;
5752;SDS011;2901;42.140;24.760;2023-07-13T07:26:37;9.93;;;9.00;;
5752;SDS011;2901;42.140;24.760;2023-07-13T07:29:02;10.57;;;9.80;;
5752;SDS011;2901;42.140;24.760;2023-07-13T07:31:28;9.52;;;9.00;;
5752;SDS011;2901;42.140;24.760;2023-07-13T07:33:53;9.70;;;9.00;;
5752;SDS011;2901;42.140;24.760;2023-07-13T07:36:19;8.85;;;8.35;;
5752;SDS011;2901;42.140;24.760;2023-07-13T07:38:44;11.00;;;8.80;;
5752;SDS011;2901;42.140;24.760;2023-07-13T07:41:10;9.95;;;9.35;;
5752;SDS011;2901;42.140;24.760;2023-07-13T07:43:35;15.13;;;9.95;;
5752;SDS011;2901;42.140;24.760;2023-07-13T07:46:02;8.68;;;7.88;;
5752;SDS011;2901;42.140;24.760;2023-07-13T07:48:27;8.98;;;8.30;;
5752;SDS011;2901;42.140;24.760;2023-07-13T07:50:53;10.02;;;9.27;;
5752;SDS011;2901;42.140;24.760;2023-07-13T07:53:18;8.98;;;8.57;;
5752;SDS011;2901;42.140;24.760;2023-07-13T07:55:43;9.40;;;8.60;;
5752;SDS011;2901;42.140;24.760;2023-07-13T07:58:10;9.57;;;8.57;;
5752;SDS011;2901;42.140;24.760;2023-07-13T08:00:35;10.13;;;9.50;;
5752;SDS011;2901;42.140;24.760;2023-07-13T08:03:01;9.02;;;8.05;;
5752;SDS011;2901;42.140;24.760;2023-07-13T08:05:27;13.52;;;9.05;;
5752;SDS011;2901;42.140;24.760;2023-07-13T08:07:52;9.73;;;9.02;;
5752;SDS011;2901;42.140;24.760;2023-07-13T08:10:18;9.40;;;8.48;;
5752;SDS011;2901;42.140;24.760;2023-07-13T08:12:44;10.20;;;7.97;;
5752;SDS011;2901;42.140;24.760;2023-07-13T08:15:16;9.63;;;8.93;;
5752;SDS011;2901;42.140;24.760;2023-07-13T08:17:42;13.02;;;8.13;;
5752;SDS011;2901;42.140;24.760;2023-07-13T08:20:07;8.57;;;7.72;;
5752;SDS011;2901;42.140;24.760;2023-07-13T08:22:34;9.98;;;8.57;;
5752;SDS011;2901;42.140;24.760;2023-07-13T08:25:00;13.90;;;8.55;;
5752;SDS011;2901;42.140;24.760;2023-07-13T08:27:27;11.88;;;8.60;;
5752;SDS011;2901;42.140;24.760;2023-07-13T08:29:53;10.57;;;8.45;;
5752;SDS011;2901;42.140;24.760;2023-07-13T08:32:19;9.75;;;8.85;;
5752;SDS011;2901;42.140;24.760;2023-07-13T08:34:45;9.93;;;8.90;;
5752;SDS011;2901;42.140;24.760;2023-07-13T08:37:11;9.43;;;8.63;;
5752;SDS011;2901;42.140;24.760;2023-07-13T08:39:37;11.23;;;7.97;;
5752;SDS011;2901;42.140;24.760;2023-07-13T08:42:07;10.52;;;8.23;;
5752;SDS011;2901;42.140;24.760;2023-07-13T08:44:43;8.63;;;7.72;;
5752;SDS011;2901;42.140;24.760;2023-07-13T08:47:18;9.55;;;8.15;;
5752;SDS011;2901;42.140;24.760;2023-07-13T08:49:46;8.90;;;8.15;;
5752;SDS011;2901;42.140;24.760;2023-07-13T08:55:26;17.70;;;8.15;;
5752;SDS011;2901;42.140;24.760;2023-07-13T08:57:59;8.93;;;8.10;;
5752;SDS011;2901;42.140;24.760;2023-07-13T09:00:32;13.07;;;7.95;;
5752;SDS011;2901;42.140;24.760;2023-07-13T09:03:07;12.43;;;8.30;;
5752;SDS011;2901;42.140;24.760;2023-07-13T09:05:45;8.90;;;8.07;;
5752;SDS011;2901;42.140;24.760;2023-07-13T09:08:22;13.68;;;7.63;;
5752;SDS011;2901;42.140;24.760;2023-07-13T09:11:04;9.60;;;8.70;;
5752;SDS011;2901;42.140;24.760;2023-07-13T09:16:16;12.05;;;7.85;;
5752;SDS011;2901;42.140;24.760;2023-07-13T09:18:42;19.58;;;9.48;;
5752;SDS011;2901;42.140;24.760;2023-07-13T09:21:20;7.70;;;6.90;;
5752;SDS011;2901;42.140;24.760;2023-07-13T09:23:53;7.80;;;7.20;;
5752;SDS011;2901;42.140;24.760;2023-07-13T09:26:22;11.30;;;7.15;;
5752;SDS011;2901;42.140;24.760;2023-07-13T09:28:54;7.72;;;6.90;;
5752;SDS011;2901;42.140;24.760;2023-07-13T09:31:33;7.57;;;6.97;;
5752;SDS011;2901;42.140;24.760;2023-07-13T09:34:08;7.45;;;7.00;;
5752;SDS011;2901;42.140;24.760;2023-07-13T09:36:35;11.23;;;7.30;;
5752;SDS011;2901;42.140;24.760;2023-07-13T09:44:34;9.10;;;6.68;;
5752;SDS011;2901;42.140;24.760;2023-07-13T09:47:01;7.07;;;6.47;;
5752;SDS011;2901;42.140;24.760;2023-07-13T09:49:29;7.00;;;6.57;;
5752;SDS011;2901;42.140;24.760;2023-07-13T09:51:59;7.30;;;6.90;;
5752;SDS011;2901;42.140;24.760;2023-07-13T09:54:27;9.07;;;5.90;;
5752;SDS011;2901;42.140;24.760;2023-07-13T09:56:56;15.80;;;6.82;;
5752;SDS011;2901;42.140;24.760;2023-07-13T09:59:23;12.35;;;6.88;;
5752;SDS011;2901;42.140;24.760;2023-07-13T10:01:52;12.00;;;7.35;;
5752;SDS011;2901;42.140;24.760;2023-07-13T10:04:18;7.97;;;7.32;;
5752;SDS011;2901;42.140;24.760;2023-07-13T10:06:45;7.75;;;6.95;;
5752;SDS011;2901;42.140;24.760;2023-07-13T10:09:17;7.45;;;6.90;;
5752;SDS011;2901;42.140;24.760;2023-07-13T10:11:44;14.48;;;7.72;;
5752;SDS011;2901;42.140;24.760;2023-07-13T10:14:14;6.82;;;6.20;;
5752;SDS011;2901;42.140;24.760;2023-07-13T10:16:42;8.02;;;7.43;;
5752;SDS011;2901;42.140;24.760;2023-07-13T10:21:52;7.05;;;6.55;;
5752;SDS011;2901;42.140;24.760;2023-07-13T10:24:25;8.50;;;7.70;;
5752;SDS011;2901;42.140;24.760;2023-07-13T10:26:54;9.35;;;7.97;;
5752;SDS011;2901;42.140;24.760;2023-07-13T10:29:21;6.28;;;5.65;;
5752;SDS011;2901;42.140;24.760;2023-07-13T10:31:51;10.70;;;5.88;;
5752;SDS011;2901;42.140;24.760;2023-07-13T10:34:16;5.10;;;4.78;;
5752;SDS011;2901;42.140;24.760;2023-07-13T10:36:44;10.05;;;5.82;;
5752;SDS011;2901;42.140;24.760;2023-07-13T10:39:16;5.28;;;4.97;;
5752;SDS011;2901;42.140;24.760;2023-07-13T10:41:44;5.55;;;5.05;;
5752;SDS011;2901;42.140;24.760;2023-07-13T10:44:33;7.10;;;5.38;;
5752;SDS011;2901;42.140;24.760;2023-07-13T10:46:59;5.38;;;4.65;;
5752;SDS011;2901;42.140;24.760;2023-07-13T10:49:27;5.68;;;5.28;;
5752;SDS011;2901;42.140;24.760;2023-07-13T10:51:54;7.50;;;4.97;;
5752;SDS011;2901;42.140;24.760;2023-07-13T10:54:41;6.63;;;5.40;;
5752;SDS011;2901;42.140;24.760;2023-07-13T10:57:15;5.35;;;4.95;;
5752;SDS011;2901;42.140;24.760;2023-07-13T10:59:46;6.03;;;5.22;;
5752;SDS011;2901;42.140;24.760;2023-07-13T11:02:34;5.15;;;4.75;;
5752;SDS011;2901;42.140;24.760;2023-07-13T11:05:01;6.05;;;5.53;;
5752;SDS011;2901;42.140;24.760;2023-07-13T11:07:55;6.72;;;4.97;;
5752;SDS011;2901;42.140;24.760;2023-07-13T11:13:35;4.90;;;4.47;;
5752;SDS011;2901;42.140;24.760;2023-07-13T11:16:13;4.68;;;4.20;;
5752;SDS011;2901;42.140;24.760;2023-07-13T11:21:27;7.97;;;5.20;;
5752;SDS011;2901;42.140;24.760;2023-07-13T11:24:03;4.55;;;4.25;;
5752;SDS011;2901;42.140;24.760;2023-07-13T11:26:39;4.72;;;4.30;;
5752;SDS011;2901;42.140;24.760;2023-07-13T11:32:00;4.28;;;3.97;;
5752;SDS011;2901;42.140;24.760;2023-07-13T11:34:46;6.55;;;4.22;;
5752;SDS011;2901;42.140;24.760;2023-07-13T11:37:12;5.05;;;4.63;;
5752;SDS011;2901;42.140;24.760;2023-07-13T11:39:43;5.22;;;4.05;;
5752;SDS011;2901;42.140;24.760;2023-07-13T11:42:14;4.78;;;4.38;;
5752;SDS011;2901;42.140;24.760;2023-07-13T11:44:49;6.05;;;4.43;;
5752;SDS011;2901;42.140;24.760;2023-07-13T11:47:22;7.57;;;4.65;;
5752;SDS011;2901;42.140;24.760;2023-07-13T11:49:53;4.50;;;4.13;;
5752;SDS011;2901;42.140;24.760;2023-07-13T11:52:34;4.95;;;4.45;;
5752;SDS011;2901;42.140;24.760;2023-07-13T11:55:02;6.18;;;5.20;;
5752;SDS011;2901;42.140;24.760;2023-07-13T11:57:40;6.65;;;4.50;;
5752;SDS011;2901;42.140;24.760;2023-07-13T12:00:28;7.68;;;5.28;;
5752;SDS011;2901;42.140;24.760;2023-07-13T12:02:59;6.50;;;4.90;;
5752;SDS011;2901;42.140;24.760;2023-07-13T12:05:25;5.20;;;4.18;;
5752;SDS011;2901;42.140;24.760;2023-07-13T12:07:51;7.20;;;4.40;;
5752;SDS011;2901;42.140;24.760;2023-07-13T12:10:26;6.43;;;4.40;;
5752;SDS011;2901;42.140;24.760;2023-07-13T12:13:01;4.30;;;3.90;;
5752;SDS011;2901;42.140;24.760;2023-07-13T12:15:41;5.07;;;4.68;;
5752;SDS011;2901;42.140;24.760;2023-07-13T12:18:13;6.57;;;4.47;;
5752;SDS011;2901;42.140;24.760;2023-07-13T12:20:40;11.65;;;5.88;;
5752;SDS011;2901;42.140;24.760;2023-07-13T12:23:06;13.18;;;4.68;;
5752;SDS011;2901;42.140;24.760;2023-07-13T12:25:46;5.70;;;4.72;;
5752;SDS011;2901;42.140;24.760;2023-07-13T12:28:22;5.95;;;5.50;;
5752;SDS011;2901;42.140;24.760;2023-07-13T12:31:00;7.57;;;5.72;;
5752;SDS011;2901;42.140;24.760;2023-07-13T12:33:28;17.83;;;5.90;;
5752;SDS011;2901;42.140;24.760;2023-07-13T12:35:56;8.20;;;5.50;;
5752;SDS011;2901;42.140;24.760;2023-07-13T12:38:24;6.40;;;5.40;;
5752;SDS011;2901;42.140;24.760;2023-07-13T12:40:51;9.90;;;5.85;;
5752;SDS011;2901;42.140;24.760;2023-07-13T12:43:17;6.72;;;6.00;;
5752;SDS011;2901;42.140;24.760;2023-07-13T12:46:01;6.45;;;6.05;;
5752;SDS011;2901;42.140;24.760;2023-07-13T12:48:42;11.48;;;5.97;;
5752;SDS011;2901;42.140;24.760;2023-07-13T12:51:10;5.13;;;4.75;;
5752;SDS011;2901;42.140;24.760;2023-07-13T12:53:48;8.80;;;5.25;;
5752;SDS011;2901;42.140;24.760;2023-07-13T12:56:19;28.08;;;7.38;;
5752;SDS011;2901;42.140;24.760;2023-07-13T12:58:48;9.48;;;5.32;;
5752;SDS011;2901;42.140;24.760;2023-07-13T13:01:19;9.70;;;5.80;;
5752;SDS011;2901;42.140;24.760;2023-07-13T13:03:52;7.63;;;5.95;;
5752;SDS011;2901;42.140;24.760;2023-07-13T13:06:22;8.93;;;6.18;;
5752;SDS011;2901;42.140;24.760;2023-07-13T13:08:54;7.00;;;4.97;;
5752;SDS011;2901;42.140;24.760;2023-07-13T13:11:23;5.65;;;5.10;;
5752;SDS011;2901;42.140;24.760;2023-07-13T13:13:51;5.10;;;4.80;;
5752;SDS011;2901;42.140;24.760;2023-07-13T13:18:45;5.72;;;5.07;;
5752;SDS011;2901;42.140;24.760;2023-07-13T13:21:11;9.23;;;5.65;;
5752;SDS011;2901;42.140;24.760;2023-07-13T13:23:37;6.13;;;5.50;;
5752;SDS011;2901;42.140;24.760;2023-07-13T13:26:03;7.45;;;5.10;;
5752;SDS011;2901;42.140;24.760;2023-07-13T13:28:34;6.75;;;5.45;;
5752;SDS011;2901;42.140;24.760;2023-07-13T13:30:59;7.00;;;4.53;;
5752;SDS011;2901;42.140;24.760;2023-07-13T13:33:25;7.85;;;5.18;;
5752;SDS011;2901;42.140;24.760;2023-07-13T13:35:50;6.65;;;4.95;;
5752;SDS011;2901;42.140;24.760;2023-07-13T13:38:18;5.13;;;4.57;;
5752;SDS011;2901;42.140;24.760;2023-07-13T13:40:48;8.63;;;5.00;;
5752;SDS011;2901;42.140;24.760;2023-07-13T13:45:40;5.18;;;4.70;;
5752;SDS011;2901;42.140;24.760;2023-07-13T13:48:06;6.28;;;4.82;;
5752;SDS011;2901;42.140;24.760;2023-07-13T13:50:38;18.38;;;6.28;;
5752;SDS011;2901;42.140;24.760;2023-07-13T13:53:04;7.03;;;5.93;;
5752;SDS011;2901;42.140;24.760;2023-07-13T13:55:29;11.20;;;5.75;;
5752;SDS011;2901;42.140;24.760;2023-07-13T13:57:54;5.93;;;5.38;;
5752;SDS011;2901;42.140;24.760;2023-07-13T14:00:20;8.82;;;5.18;;
5752;SDS011;2901;42.140;24.760;2023-07-13T14:02:48;14.20;;;5.43;;
5752;SDS011;2901;42.140;24.760;2023-07-13T14:05:18;8.70;;;5.07;;
5752;SDS011;2901;42.140;24.760;2023-07-13T14:07:49;8.35;;;5.22;;
5752;SDS011;2901;42.140;24.760;2023-07-13T14:10:16;8.00;;;5.05;;
5752;SDS011;2901;42.140;24.760;2023-07-13T14:12:43;5.65;;;4.97;;
5752;SDS011;2901;42.140;24.760;2023-07-13T14:15:17;9.60;;;8.35;;
5752;SDS011;2901;42.140;24.760;2023-07-13T14:17:45;9.63;;;6.20;;
5752;SDS011;2901;42.140;24.760;2023-07-13T14:20:11;5.82;;;5.43;;
5752;SDS011;2901;42.140;24.760;2023-07-13T14:22:37;10.65;;;5.90;;
5752;SDS011;2901;42.140;24.760;2023-07-13T14:25:03;9.07;;;5.68;;
5752;SDS011;2901;42.140;24.760;2023-07-13T14:27:28;8.73;;;5.20;;
5752;SDS011;2901;42.140;24.760;2023-07-13T14:29:54;9.02;;;4.90;;
5752;SDS011;2901;42.140;24.760;2023-07-13T14:32:19;13.70;;;5.80;;
5752;SDS011;2901;42.140;24.760;2023-07-13T14:34:44;6.53;;;5.50;;
5752;SDS011;2901;42.140;24.760;2023-07-13T14:37:14;5.55;;;5.10;;
5752;SDS011;2901;42.140;24.760;2023-07-13T14:39:42;12.57;;;5.78;;
5752;SDS011;2901;42.140;24.760;2023-07-13T14:42:09;7.35;;;5.82;;
5752;SDS011;2901;42.140;24.760;2023-07-13T14:44:35;9.82;;;5.90;;
5752;SDS011;2901;42.140;24.760;2023-07-13T14:47:02;14.43;;;5.57;;
5752;SDS011;2901;42.140;24.760;2023-07-13T14:49:36;8.23;;;5.15;;
5752;SDS011;2901;42.140;24.760;2023-07-13T14:52:13;5.55;;;4.70;;
5752;SDS011;2901;42.140;24.760;2023-07-13T14:54:42;11.05;;;5.00;;
5752;SDS011;2901;42.140;24.760;2023-07-13T14:57:16;6.70;;;5.70;;
5752;SDS011;2901;42.140;24.760;2023-07-13T14:59:44;6.60;;;4.43;;
5752;SDS011;2901;42.140;24.760;2023-07-13T15:04:42;8.93;;;5.90;;
5752;SDS011;2901;42.140;24.760;2023-07-13T15:07:12;15.98;;;9.50;;
5752;SDS011;2901;42.140;24.760;2023-07-13T15:09:40;14.23;;;7.63;;
5752;SDS011;2901;42.140;24.760;2023-07-13T15:12:06;11.45;;;5.38;;
5752;SDS011;2901;42.140;24.760;2023-07-13T15:14:32;12.77;;;6.18;;
5752;SDS011;2901;42.140;24.760;2023-07-13T15:16:57;6.60;;;6.03;;
5752;SDS011;2901;42.140;24.760;2023-07-13T15:19:23;10.75;;;6.20;;
5752;SDS011;2901;42.140;24.760;2023-07-13T15:21:51;12.57;;;4.88;;
5752;SDS011;2901;42.140;24.760;2023-07-13T15:24:19;10.25;;;5.13;;
5752;SDS011;2901;42.140;24.760;2023-07-13T15:26:45;14.18;;;6.03;;
5752;SDS011;2901;42.140;24.760;2023-07-13T15:29:14;8.30;;;5.90;;